Time;durP1;ratioP1;P1;durP2;ratioP2;P2;SDS_P1;SDS_P2;PMS_P1;PMS_P2;Temp;Humidity;BMP_temperature;BMP_pressure;BME280_temperature;BME280_humidity;BME280_pressure;Samples;Min_cycle;Max_cycle;Signal;HPM_P1;HPM_P2
2022/09/23 00:02:16;;;;;;;9.35;6.05;;;;;;;13.71;56.72;101817.41;5105065;28;20616;-48
2022/09/23 00:04:49;;;;;;;;;;;;;;;13.77;56.53;101822.13;5105643;28;20089;-47
2022/09/23 00:07:21;;;;;;;11.02;5.93;;;;;;;13.74;56.68;101822.41;5108472;28;19926;-44
2022/09/23 00:09:54;;;;;;;8.77;6.07;;;;;;;13.66;56.52;101809.06;5105947;28;20471;-39
2022/09/23 00:12:27;;;;;;;12.10;5.95;;;;;;;13.75;56.62;101815.28;5103137;28;20651;-41
2022/09/23 00:15:01;;;;;;;11.68;5.85;;;;;;;13.68;56.50;101812.38;5109948;28;20564;-45
2022/09/23 00:17:34;;;;;;;7.65;5.55;;;;;;;13.74;56.62;101819.75;5105734;28;20510;-45
2022/09/23 00:20:08;;;;;;;10.23;6.35;;;;;;;13.72;56.54;101813.78;5107965;28;20074;-46
2022/09/23 00:22:41;;;;;;;8.25;6.03;;;;;;;13.71;56.74;101812.09;5107328;28;20532;-50
2022/09/23 00:25:13;;;;;;;11.00;6.75;;;;;;;13.70;56.66;101813.09;5100707;28;20620;-47
2022/09/23 00:27:46;;;;;;;9.65;6.32;;;;;;;13.61;56.66;101796.22;5106039;28;20081;-46
2022/09/23 00:30:22;;;;;;;13.20;6.57;;;;;;;13.65;56.62;101801.22;5109774;28;20451;-44
2022/09/23 00:32:55;;;;;;;11.70;6.80;;;;;;;13.61;56.74;101793.56;5114471;28;20042;-45
2022/09/23 00:35:28;;;;;;;10.65;6.60;;;;;;;13.52;56.74;101790.94;5107961;28;20344;-45
2022/09/23 00:38:00;;;;;;;13.38;6.75;;;;;;;13.52;56.71;101790.94;5115553;28;20047;-44
2022/09/23 00:40:33;;;;;;;9.85;7.18;;;;;;;13.45;56.79;101798.66;5126154;28;20050;-44
2022/09/23 00:43:09;;;;;;;12.85;8.55;;;;;;;13.46;56.88;101796.81;5102857;28;20383;-44
2022/09/23 00:45:49;;;;;;;16.75;7.75;;;;;;;13.38;57.05;101795.75;5113617;28;20050;-43
2022/09/23 00:48:22;;;;;;;13.18;7.50;;;;;;;13.31;56.85;101788.50;5111101;28;20379;-44
2022/09/23 00:50:55;;;;;;;12.75;7.63;;;;;;;13.23;57.05;101783.88;5115308;28;20038;-47
2022/09/23 00:53:29;;;;;;;15.18;8.15;;;;;;;13.18;57.02;101778.16;5127703;28;20046;-46
2022/09/23 00:56:06;;;;;;;12.40;7.40;;;;;;;13.28;57.07;101791.44;5116530;28;20431;-48
2022/09/23 00:58:41;;;;;;;17.63;8.98;;;;;;;13.16;57.10;101785.44;5115488;28;20053;-45
2022/09/23 01:01:16;;;;;;;13.27;7.15;;;;;;;13.15;57.14;101786.41;5109114;28;20474;-44
2022/09/23 01:03:49;;;;;;;11.68;8.30;;;;;;;13.10;56.98;101780.69;5112533;28;20525;-47
2022/09/23 01:06:21;;;;;;;9.50;7.20;;;;;;;13.03;57.28;101763.69;5129760;28;20046;-47
2022/09/23 01:08:54;;;;;;;14.35;8.02;;;;;;;13.00;57.14;101775.41;5114862;28;20502;-46
2022/09/23 01:11:42;;;;;;;11.50;7.47;;;;;;;12.97;57.22;101773.03;5114308;28;20541;-45
2022/09/23 01:14:32;;;;;;;15.05;7.63;;;;;;;12.97;57.32;101769.56;5101265;28;20058;-47
2022/09/23 01:17:14;;;;;;;11.23;7.40;;;;;;;13.00;57.17;101787.84;5116650;28;20382;-46
2022/09/23 01:20:23;;;;;;;15.40;7.97;;;;;;;12.92;57.49;101784.09;5112633;28;20414;-48
2022/09/23 01:23:12;;;;;;;12.88;7.00;;;;;;;12.85;57.19;101766.22;5094156;28;20053;-47
2022/09/23 01:26:07;;;;;;;15.23;8.60;;;;;;;12.83;57.41;101778.81;5116414;28;20517;-45
2022/09/23 01:29:10;;;;;;;13.13;7.80;;;;;;;12.83;57.23;101774.34;5114518;28;20487;-45
2022/09/23 01:31:50;;;;;;;11.43;7.30;;;;;;;12.78;57.28;101776.56;5114684;28;20190;-45
2022/09/23 01:34:28;;;;;;;14.95;7.70;;;;;;;12.71;57.34;101759.56;5108313;28;20069;-45
2022/09/23 01:37:11;;;;;;;10.27;6.82;;;;;;;12.78;57.20;101767.78;5099511;28;20055;-46
2022/09/23 01:39:47;;;;;;;;;;;;;;;12.80;57.22;101758.72;5104561;28;20047;-42
2022/09/23 01:42:28;;;;;;;11.50;6.95;;;;;;;12.68;57.17;101744.78;5106326;28;20392;-46
2022/09/23 01:45:09;;;;;;;8.85;7.18;;;;;;;12.68;57.20;101743.94;5105885;28;20056;-45
2022/09/23 01:47:49;;;;;;;14.18;7.53;;;;;;;12.66;57.24;101740.59;5106519;28;20058;-48
2022/09/23 01:53:24;;;;;;;9.48;6.80;;;;;;;12.62;57.33;101745.34;5106975;28;20403;-46
2022/09/23 01:56:04;;;;;;;14.82;8.38;;;;;;;12.59;57.24;101736.84;5099626;28;20197;-46
2022/09/23 01:58:42;;;;;;;12.48;7.43;;;;;;;12.58;57.13;101735.19;5100961;28;21648;-44
2022/09/23 02:01:21;;;;;;;11.35;7.82;;;;;;;12.60;57.30;101741.97;5102091;28;20050;-47
2022/09/23 02:04:00;;;;;;;9.68;6.93;;;;;;;12.50;57.35;101730.56;5119170;28;20446;-41
2022/09/23 02:06:38;;;;;;;12.77;7.40;;;;;;;12.48;57.62;101723.72;5106524;28;20152;-49
2022/09/23 02:09:15;;;;;;;9.48;7.38;;;;;;;12.46;57.34;101730.00;5102208;28;20419;-46
2022/09/23 02:11:51;;;;;;;9.38;7.32;;;;;;;12.41;57.49;101726.09;5102383;28;20042;-45
2022/09/23 02:14:29;;;;;;;12.88;7.10;;;;;;;12.44;57.47;101731.13;5104989;28;20055;-47
2022/09/23 02:17:08;;;;;;;8.90;6.22;;;;;;;12.36;57.38;101717.75;5110769;28;20046;-42
2022/09/23 02:19:46;;;;;;;10.48;7.28;;;;;;;12.42;57.61;101733.94;5105951;28;20065;-46
2022/09/23 02:22:23;;;;;;;12.77;7.43;;;;;;;12.26;57.63;101707.13;5101522;28;20502;-43
2022/09/23 02:24:57;;;;;;;8.68;6.15;;;;;;;12.33;57.63;101716.22;5100330;28;20046;-46
2022/09/23 02:27:34;;;;;;;15.77;7.15;;;;;;;12.29;57.69;101719.28;5108178;28;20096;-49
2022/09/23 02:30:12;;;;;;;11.10;7.03;;;;;;;12.24;57.63;101714.41;5112111;28;20500;-45
2022/09/23 02:32:53;;;;;;;11.15;6.32;;;;;;;12.13;57.76;101702.13;5106656;28;20047;-43
2022/09/23 02:35:33;;;;;;;10.15;5.90;;;;;;;12.15;57.97;101694.88;5097904;28;20054;-47
2022/09/23 02:38:17;;;;;;;7.43;6.07;;;;;;;12.14;57.86;101703.81;5103593;28;20453;-46
2022/09/23 02:40:57;;;;;;;11.02;6.88;;;;;;;12.14;57.70;101702.94;5098896;28;20190;-45
2022/09/23 02:43:35;;;;;;;14.05;6.63;;;;;;;12.11;57.92;101692.63;5104934;28;20052;-48
2022/09/23 02:46:08;;;;;;;9.68;6.65;;;;;;;12.06;58.04;101690.41;5107209;28;20050;-43
2022/09/23 02:48:44;;;;;;;;;;;;;;;12.08;58.03;101695.56;5105986;28;20120;-44
2022/09/23 02:51:18;;;;;;;12.10;7.05;;;;;;;11.97;58.15;101689.44;5106567;28;19922;-45
2022/09/23 02:53:51;;;;;;;10.30;7.30;;;;;;;12.01;58.01;101697.94;5100790;28;20034;-44
2022/09/23 02:56:26;;;;;;;11.73;6.80;;;;;;;11.92;58.00;101680.22;5104742;28;20487;-43
2022/09/23 02:58:58;;;;;;;9.18;6.25;;;;;;;11.98;57.95;101688.47;5105597;28;20501;-46
2022/09/23 03:01:46;;;;;;;9.00;6.07;;;;;;;12.03;57.98;101684.56;5105453;28;20050;-46
2022/09/23 03:04:26;;;;;;;9.60;6.75;;;;;;;11.97;57.88;101675.38;5106698;28;20049;-49
2022/09/23 03:07:06;;;;;;;11.10;6.10;;;;;;;12.10;57.79;101696.28;5107479;28;20078;-45
2022/09/23 03:09:46;;;;;;;8.95;6.30;;;;;;;12.05;57.76;101677.31;5102744;28;20466;-46
2022/09/23 03:12:33;;;;;;;10.52;5.63;;;;;;;12.08;57.78;101684.97;5098922;28;20136;-47
2022/09/23 03:15:19;;;;;;;8.68;6.72;;;;;;;12.07;57.87;101678.00;5111178;28;20145;-46
2022/09/23 03:17:59;;;;;;;8.90;6.60;;;;;;;12.00;57.83;101675.91;5095857;28;20042;-47
2022/09/23 03:20:38;;;;;;;10.68;6.10;;;;;;;11.98;57.87;101667.31;5098820;28;20046;-45
2022/09/23 03:23:16;;;;;;;7.72;5.75;;;;;;;11.95;57.73;101656.13;5105277;28;20494;-46
2022/09/23 03:25:52;;;;;;;14.95;7.55;;;;;;;12.05;57.83;101672.00;5099525;28;20511;-47
2022/09/23 03:28:26;;;;;;;11.52;6.88;;;;;;;12.04;57.70;101663.25;5104881;28;20617;-45
2022/09/23 03:30:59;;;;;;;10.77;7.75;;;;;;;12.03;57.65;101663.38;5104231;28;20058;-48
2022/09/23 03:33:32;;;;;;;;;;;;;;;12.09;57.67;101668.97;5105441;28;20589;-45
2022/09/23 03:39:06;;;;;;;13.57;6.97;;;;;;;11.98;57.78;101662.00;5091331;28;20076;-48
2022/09/23 03:41:44;;;;;;;14.73;6.93;;;;;;;11.94;57.89;101655.28;5106374;28;20106;-46
2022/09/23 03:44:18;;;;;;;10.57;7.35;;;;;;;11.97;57.85;101659.47;5110990;28;20106;-44
2022/09/23 03:46:51;;;;;;;9.63;6.72;;;;;;;11.93;57.75;101653.63;5097844;28;20050;-45
2022/09/23 03:49:27;;;;;;;8.30;7.38;;;;;;;11.94;57.89;101650.00;5103192;28;20403;-46
2022/09/23 03:52:52;;;;;;;11.15;7.03;;;;;;;12.05;57.86;101666.72;5107675;28;20038;-46
2022/09/23 03:55:26;;;;;;;15.48;8.50;;;;;;;11.98;57.88;101653.19;5103303;28;20490;-46
2022/09/23 03:57:59;;;;;;;16.60;8.90;;;;;;;12.01;57.73;101642.34;5104553;28;20426;-45
2022/09/23 04:00:34;;;;;;;11.27;7.22;;;;;;;12.10;57.46;101640.66;5097591;28;20042;-47
2022/09/23 04:03:07;;;;;;;10.50;7.90;;;;;;;12.26;57.38;101651.53;5099301;28;22189;-49
2022/09/23 04:05:41;;;;;;;13.10;8.85;;;;;;;12.26;57.42;101640.91;5098454;28;20536;-43
2022/09/23 04:08:14;;;;;;;15.85;8.32;;;;;;;12.34;57.13;101641.06;5097056;28;20071;-43
2022/09/23 04:10:49;;;;;;;9.80;7.18;;;;;;;12.42;57.09;101633.25;5098795;28;20043;-46
2022/09/23 04:13:21;;;;;;;17.10;8.48;;;;;;;12.37;57.20;101624.88;5098380;28;20438;-48
2022/09/23 04:15:54;;;;;;;15.38;9.00;;;;;;;12.43;57.13;101628.78;5096890;28;20388;-49
2022/09/23 04:18:51;;;;;;;15.05;9.23;;;;;;;12.56;57.14;101639.06;5083953;28;20057;-43
2022/09/23 04:21:49;;;;;;;14.45;8.38;;;;;;;12.61;56.94;101636.84;5103152;28;20258;-42
2022/09/23 04:24:22;;;;;;;18.35;9.25;;;;;;;12.61;56.85;101636.84;5101123;28;20350;-44
2022/09/23 04:26:57;;;;;;;19.02;9.05;;;;;;;12.54;56.90;101614.53;5100513;28;20487;-49
2022/09/23 04:29:30;;;;;;;13.10;9.05;;;;;;;12.63;56.88;101633.03;5096784;28;20472;-44
2022/09/23 04:32:20;;;;;;;20.88;9.88;;;;;;;12.62;56.94;101623.44;5101184;28;20494;-47
2022/09/23 04:34:53;;;;;;;15.82;8.38;;;;;;;12.63;56.82;101617.16;5100240;28;20050;-45
2022/09/23 04:37:25;;;;;;;18.08;8.70;;;;;;;12.68;56.92;101622.84;5112930;28;20451;-46
2022/09/23 04:39:58;;;;;;;15.48;9.07;;;;;;;12.66;56.92;101602.78;5105367;28;20495;-46
2022/09/23 04:42:32;;;;;;;25.33;10.35;;;;;;;12.74;57.03;101618.81;5114152;28;20137;-43
2022/09/23 04:45:05;;;;;;;13.90;9.60;;;;;;;12.75;57.03;101614.31;5102353;28;20482;-45
2022/09/23 04:47:38;;;;;;;14.23;9.45;;;;;;;12.80;56.82;101628.81;5112954;28;20050;-45
2022/09/23 04:50:11;;;;;;;18.92;10.57;;;;;;;12.80;56.87;101626.16;5113139;28;20116;-47
2022/09/23 04:52:43;;;;;;;;;;;;;;;12.85;56.75;101623.06;5115909;28;20617;-47
2022/09/23 04:55:16;;;;;;;24.55;9.60;;;;;;;12.84;56.76;101622.25;5115280;28;20370;-51
2022/09/23 04:57:50;;;;;;;24.88;10.30;;;;;;;12.78;56.51;101612.22;5112167;28;20062;-45
2022/09/23 05:00:23;;;;;;;22.85;10.00;;;;;;;12.88;56.66;101623.66;5114427;28;20454;-46
2022/09/23 05:02:55;;;;;;;29.92;9.90;;;;;;;12.81;56.49;101611.09;5113558;28;20042;-47
2022/09/23 05:05:28;;;;;;;18.92;10.63;;;;;;;12.88;56.74;101623.66;5114256;28;20074;-43
2022/09/23 05:08:01;;;;;;;24.85;9.93;;;;;;;12.89;56.70;101619.16;5113427;28;20054;-46
2022/09/23 05:10:34;;;;;;;22.23;13.20;;;;;;;12.93;56.81;101626.66;5113153;28;20046;-45
2022/09/23 05:13:08;;;;;;;21.77;11.30;;;;;;;12.96;56.70;101622.06;5113369;28;20043;-47
2022/09/23 05:15:40;;;;;;;26.10;10.77;;;;;;;12.98;56.64;101623.59;5111701;28;20418;-46
2022/09/23 05:18:13;;;;;;;22.05;10.70;;;;;;;12.99;56.58;101624.44;5113242;28;20049;-50
2022/09/23 05:20:45;;;;;;;28.70;11.85;;;;;;;13.03;56.70;101617.84;5112466;28;20119;-44
2022/09/23 05:23:18;;;;;;;26.63;12.02;;;;;;;13.08;56.68;101632.34;5112747;28;20503;-41
2022/09/23 05:25:57;;;;;;;19.73;11.52;;;;;;;13.07;56.66;101627.19;5112037;28;20053;-47
2022/09/23 05:28:32;;;;;;;26.08;11.98;;;;;;;13.11;56.62;101633.88;5109955;28;20061;-46
2022/09/23 05:31:08;;;;;;;30.58;12.70;;;;;;;13.12;56.69;101630.22;5110998;28;20438;-48
2022/09/23 05:33:41;;;;;;;22.95;12.15;;;;;;;13.09;56.53;101619.91;5109038;28;20419;-45
2022/09/23 05:36:15;;;;;;;21.83;11.82;;;;;;;13.12;56.55;101620.44;5111122;28;20147;-42
2022/09/23 05:38:50;;;;;;;25.42;12.38;;;;;;;13.18;56.51;101629.63;5109998;28;20492;-44
2022/09/23 05:41:23;;;;;;;24.55;12.80;;;;;;;13.26;56.50;101643.03;5111908;28;20034;-45
2022/09/23 05:43:58;;;;;;;19.33;11.38;;;;;;;13.22;56.38;101631.00;5112181;28;20434;-45
2022/09/23 05:46:31;;;;;;;30.40;11.77;;;;;;;13.32;56.38;101631.84;5112630;28;20533;-44
2022/09/23 05:49:05;;;;;;;20.77;10.48;;;;;;;13.31;56.62;101630.16;5113469;28;20380;-45
2022/09/23 05:51:37;;;;;;;21.83;9.95;;;;;;;13.29;56.60;101632.13;5113325;28;20502;-42
2022/09/23 05:54:10;;;;;;;24.88;11.63;;;;;;;13.30;56.49;101617.88;5112695;28;20057;-43
2022/09/23 05:56:42;;;;;;;26.90;12.65;;;;;;;13.38;56.45;101636.56;5111292;28;20085;-44
2022/09/23 05:59:16;;;;;;;19.38;11.02;;;;;;;13.45;56.45;101646.56;5112093;28;20090;-47
2022/09/23 06:01:49;;;;;;;23.50;11.82;;;;;;;13.46;56.36;101634.97;5094081;28;20061;-44
2022/09/23 06:04:21;;;;;;;30.75;12.07;;;;;;;13.36;56.45;101619.94;5109738;28;20088;-47
2022/09/23 06:06:54;;;;;;;22.20;11.45;;;;;;;13.49;56.24;101632.00;5107764;28;20058;-41
2022/09/23 06:09:27;;;;;;;18.52;11.20;;;;;;;13.41;56.24;101621.28;5110287;28;20072;-44
2022/09/23 06:11:59;;;;;;;22.52;10.75;;;;;;;13.46;56.51;101621.69;5110485;28;20046;-42
2022/09/23 06:14:34;;;;;;;16.98;11.43;;;;;;;13.51;56.51;101625.56;5113131;28;20046;-44
2022/09/23 06:17:06;;;;;;;19.13;13.25;;;;;;;13.49;56.64;101618.75;5112001;28;20116;-41
2022/09/23 06:19:39;;;;;;;29.25;13.38;;;;;;;13.51;56.58;101619.44;5110521;28;20050;-41
2022/09/23 06:22:15;;;;;;;22.25;11.98;;;;;;;13.57;56.42;101640.06;5113379;28;20518;-43
2022/09/23 06:24:48;;;;;;;17.65;11.00;;;;;;;13.55;56.59;101637.56;5115881;28;20363;-37
2022/09/23 06:27:20;;;;;;;20.95;13.40;;;;;;;13.56;56.66;101633.06;5112591;28;20096;-43
2022/09/23 06:29:55;;;;;;;21.92;13.60;;;;;;;13.56;56.66;101633.06;5102366;28;20533;-41
2022/09/23 06:32:27;;;;;;;18.42;13.20;;;;;;;13.53;56.75;101634.22;5111706;28;20076;-43
2022/09/23 06:35:00;;;;;;;17.33;11.70;;;;;;;13.59;56.99;101638.06;5113585;28;20043;-42
2022/09/23 06:37:33;;;;;;;19.77;11.18;;;;;;;13.68;56.95;101636.34;5114004;28;20491;-43
2022/09/23 06:40:07;;;;;;;24.45;11.65;;;;;;;13.67;56.87;101624.91;5113688;28;20435;-45
2022/09/23 06:42:45;;;;;;;19.33;11.55;;;;;;;13.74;56.86;101625.97;5112867;28;20054;-45
2022/09/23 06:45:22;;;;;;;20.80;12.20;;;;;;;13.78;56.86;101630.00;5112993;28;20383;-43
2022/09/23 06:47:56;;;;;;;21.63;12.88;;;;;;;13.84;56.66;101625.88;5107973;28;20034;-48
2022/09/23 06:50:29;;;;;;;27.20;12.63;;;;;;;13.92;56.52;101627.78;5110657;28;20050;-42
2022/09/23 06:53:03;;;;;;;23.52;12.52;;;;;;;13.87;56.39;101609.66;5112759;28;20042;-43
2022/09/23 06:55:42;;;;;;;18.48;12.48;;;;;;;13.99;56.70;101629.66;5112708;28;20502;-43
2022/09/23 06:58:14;;;;;;;21.33;13.43;;;;;;;14.04;56.77;101626.56;5105573;28;20046;-50
2022/09/23 07:00:48;;;;;;;18.30;12.13;;;;;;;13.97;56.70;101612.25;5095845;28;20109;-43
2022/09/23 07:03:21;;;;;;;23.75;11.70;;;;;;;14.02;56.86;101620.56;5093012;28;20905;-40
2022/09/23 07:05:55;;;;;;;20.38;12.18;;;;;;;14.07;56.78;101636.88;5097020;28;20062;-45
2022/09/23 07:08:30;;;;;;;20.10;11.25;;;;;;;14.11;56.84;101638.25;5097471;28;20074;-46
2022/09/23 07:11:05;;;;;;;25.30;12.90;;;;;;;14.11;56.85;101632.94;5097961;28;20384;-45
2022/09/23 07:13:38;;;;;;;24.67;11.35;;;;;;;14.10;57.12;101622.47;5097107;28;22571;-43
2022/09/23 07:16:12;;;;;;;;;;;;;;;14.20;56.92;101628.53;5097836;28;20494;-46
2022/09/23 07:18:44;;;;;;;;;;;;;;;14.23;56.93;101633.53;5096386;28;20013;-43
2022/09/23 07:21:19;;;;;;;21.27;12.95;;;;;;;14.27;56.88;101635.72;5097724;28;19922;-47
2022/09/23 07:23:52;;;;;;;17.92;12.20;;;;;;;14.25;56.70;101618.28;5093737;28;20498;-49
2022/09/23 07:26:25;;;;;;;23.95;13.43;;;;;;;14.42;56.65;101633.34;5098211;28;20039;-47
2022/09/23 07:29:03;;;;;;;24.65;14.27;;;;;;;14.41;56.64;101629.00;5097707;28;20062;-45
2022/09/23 07:31:37;;;;;;;20.45;12.65;;;;;;;14.39;56.59;101619.53;5095632;28;20545;-45
2022/09/23 07:34:11;;;;;;;24.70;13.52;;;;;;;14.50;56.71;101632.56;5100337;28;20345;-47
2022/09/23 07:36:44;;;;;;;19.80;11.63;;;;;;;14.44;56.57;101617.25;5099822;28;20042;-51
2022/09/23 07:39:16;;;;;;;17.48;12.30;;;;;;;14.44;56.58;101606.63;5098959;28;20047;-45
2022/09/23 07:41:50;;;;;;;23.02;11.70;;;;;;;14.48;56.74;101607.97;5095538;28;20086;-45
2022/09/23 07:44:24;;;;;;;21.00;12.63;;;;;;;14.56;56.72;101629.31;5103127;28;20432;-43
2022/09/23 07:46:59;;;;;;;22.98;11.43;;;;;;;14.60;56.72;101622.69;5102333;28;20481;-44
2022/09/23 07:49:31;;;;;;;23.52;13.13;;;;;;;14.66;56.51;101624.72;5099344;28;20061;-45
2022/09/23 07:52:05;;;;;;;20.45;13.35;;;;;;;14.71;56.42;101613.59;5100112;28;20058;-42
2022/09/23 07:54:37;;;;;;;23.05;12.60;;;;;;;14.83;56.52;101638.94;5103414;28;20050;-46
2022/09/23 07:57:10;;;;;;;36.72;12.13;;;;;;;14.89;56.67;101632.16;5101607;28;20376;-42
2022/09/23 07:59:42;;;;;;;23.58;12.10;;;;;;;14.90;56.48;101617.88;5100730;28;20569;-43
2022/09/23 08:02:17;;;;;;;22.95;12.23;;;;;;;14.92;56.58;101615.88;5101384;28;20057;-46
2022/09/23 08:04:50;;;;;;;30.70;13.35;;;;;;;15.04;56.45;101630.56;5097945;28;20520;-45
2022/09/23 08:07:22;;;;;;;;;;;;;;;15.07;56.38;101627.56;5099505;28;20372;-45
2022/09/23 08:09:55;;;;;;;23.90;13.43;;;;;;;15.07;56.28;101618.78;5100269;28;19929;-50
2022/09/23 08:12:29;;;;;;;24.15;12.20;;;;;;;15.12;56.38;101622.63;5100397;28;20892;-45
2022/09/23 08:15:01;;;;;;;19.38;12.35;;;;;;;15.15;56.46;101627.63;5098745;28;20156;-46
2022/09/23 08:17:35;;;;;;;26.00;12.00;;;;;;;15.23;56.23;101627.63;5099322;28;20514;-50
2022/09/23 08:20:42;;;;;;;17.95;11.48;;;;;;;15.26;56.01;101623.00;5100957;28;20054;-46
2022/09/23 08:23:03;;;;;;;29.02;12.32;;;;;;;15.38;56.14;101635.84;5100081;28;20050;-47
2022/09/23 08:25:35;;;;;;;27.67;12.65;;;;;;;15.43;56.02;101625.53;5099212;28;20043;-45
2022/09/23 08:28:08;;;;;;;20.90;11.57;;;;;;;15.50;56.30;101624.91;5103344;28;21548;-43
2022/09/23 08:30:41;;;;;;;20.23;12.20;;;;;;;15.48;56.06;101619.72;5112247;28;20046;-44
2022/09/23 08:33:16;;;;;;;22.52;11.60;;;;;;;15.49;56.10;101621.41;5114410;28;20504;-47
2022/09/23 08:35:48;;;;;;;26.60;13.30;;;;;;;15.62;56.03;101640.41;5112015;28;20046;-39
2022/09/23 08:38:21;;;;;;;27.48;12.10;;;;;;;15.57;55.95;101621.41;5113372;28;20057;-46
2022/09/23 08:41:03;;;;;;;20.52;11.70;;;;;;;15.57;55.91;101621.41;5111357;28;20046;-45
2022/09/23 08:43:38;;;;;;;26.20;12.63;;;;;;;15.64;56.04;101617.13;5112391;28;20072;-45
2022/09/23 08:46:11;;;;;;;28.27;11.98;;;;;;;15.62;55.87;101616.44;5112329;28;20062;-47
2022/09/23 08:48:47;;;;;;;17.67;11.38;;;;;;;15.74;55.75;101629.47;5111069;28;20046;-46
2022/09/23 08:51:25;;;;;;;24.88;13.00;;;;;;;15.80;55.81;101624.31;5109426;28;20127;-47
2022/09/23 08:54:00;;;;;;;24.60;12.95;;;;;;;15.90;55.69;101634.81;5107913;28;20055;-44
2022/09/23 08:56:43;;;;;;;18.95;12.48;;;;;;;15.84;55.93;101616.84;5105127;28;20463;-45
2022/09/23 08:59:27;;;;;;;21.75;11.38;;;;;;;15.99;55.75;101631.16;5112158;28;20384;-41
2022/09/23 09:02:05;;;;;;;27.60;12.80;;;;;;;15.93;55.61;101621.16;5112526;28;20078;-47
2022/09/23 09:04:44;;;;;;;26.85;13.02;;;;;;;16.02;55.44;101620.16;5107656;28;20759;-45
2022/09/23 09:07:22;;;;;;;28.95;13.27;;;;;;;16.16;55.51;101625.81;5102376;28;20513;-48
2022/09/23 09:10:04;;;;;;;25.38;12.38;;;;;;;16.20;55.53;101616.50;5107319;28;20069;-47
2022/09/23 09:12:43;;;;;;;28.17;11.70;;;;;;;16.26;55.23;101613.16;5111956;28;20062;-44
2022/09/23 09:15:21;;;;;;;20.15;12.60;;;;;;;16.35;55.04;101614.81;5112239;28;20118;-49
2022/09/23 09:18:01;;;;;;;25.42;12.05;;;;;;;16.50;55.08;101639.78;5111039;28;20062;-49
2022/09/23 09:20:41;;;;;;;23.75;11.85;;;;;;;16.49;55.20;101623.97;5111568;28;20073;-47
2022/09/23 09:23:23;;;;;;;20.80;12.45;;;;;;;16.50;55.12;101629.13;5111986;28;22119;-51
2022/09/23 09:25:59;;;;;;;32.95;13.45;;;;;;;16.50;55.17;101622.94;5110912;28;20428;-44
2022/09/23 09:28:38;;;;;;;26.05;12.10;;;;;;;16.48;55.29;101615.13;5113869;28;20164;-47
2022/09/23 09:31:27;;;;;;;25.27;14.40;;;;;;;16.59;55.29;101632.59;5113457;28;20412;-49
2022/09/23 09:34:06;;;;;;;21.58;11.57;;;;;;;16.56;55.10;101623.09;5108109;28;20450;-45
2022/09/23 09:36:46;;;;;;;22.33;11.93;;;;;;;16.65;55.10;101609.75;5113087;28;22250;-44
2022/09/23 09:39:19;;;;;;;20.15;12.70;;;;;;;16.72;55.10;101616.06;5107972;28;20670;-45
2022/09/23 09:41:59;;;;;;;24.85;13.35;;;;;;;16.71;55.00;101614.41;5110949;28;20438;-45
2022/09/23 09:44:36;;;;;;;23.88;12.07;;;;;;;16.79;55.08;101622.44;5113426;28;20526;-45
2022/09/23 09:47:27;;;;;;;21.10;12.68;;;;;;;16.83;55.04;101621.06;5100890;28;20065;-46
2022/09/23 09:50:07;;;;;;;23.85;13.48;;;;;;;16.84;55.02;101620.06;5099874;28;20046;-45
2022/09/23 09:52:42;;;;;;;27.67;13.77;;;;;;;16.86;55.01;101618.06;5106208;28;20054;-45
2022/09/23 09:55:26;;;;;;;22.90;11.85;;;;;;;16.90;55.27;101614.03;5111384;28;20557;-46
2022/09/23 09:58:04;;;;;;;19.83;12.73;;;;;;;16.88;55.06;101604.53;5111220;28;20555;-50
2022/09/23 10:00:44;;;;;;;18.80;11.45;;;;;;;16.90;55.23;101603.38;5110350;28;20042;-47
2022/09/23 10:03:33;;;;;;;19.02;11.15;;;;;;;16.85;55.29;101597.72;5112349;28;20053;-45
2022/09/23 10:06:18;;;;;;;26.33;12.57;;;;;;;16.87;55.27;101598.38;5109625;28;20062;-43
2022/09/23 10:09:13;;;;;;;24.90;12.32;;;;;;;16.86;55.31;101602.06;5106414;28;20430;-46
2022/09/23 10:12:14;;;;;;;27.23;12.35;;;;;;;16.85;55.43;101599.53;5110689;28;20125;-44
2022/09/23 10:14:50;;;;;;;15.15;10.95;;;;;;;16.82;55.30;101590.91;5100185;28;20499;-46
2022/09/23 10:17:25;;;;;;;24.80;13.25;;;;;;;16.90;55.38;101594.53;5092903;28;20069;-48
2022/09/23 10:20:00;;;;;;;25.98;14.18;;;;;;;16.94;55.41;101609.19;5096640;28;20046;-48
2022/09/23 10:22:41;;;;;;;20.95;12.38;;;;;;;16.93;55.59;101597.69;5102395;28;20129;-49
2022/09/23 10:25:21;;;;;;;17.27;13.70;;;;;;;16.92;55.26;101585.34;5098302;28;20046;-46
2022/09/23 10:27:54;;;;;;;23.63;12.70;;;;;;;16.97;55.54;101593.69;5093781;28;20463;-44
2022/09/23 10:30:28;;;;;;;34.95;13.68;;;;;;;17.02;55.32;101591.31;5100573;28;20677;-42
2022/09/23 10:33:01;;;;;;;22.08;13.02;;;;;;;17.05;55.33;101588.28;5098965;28;20050;-47
2022/09/23 10:35:34;;;;;;;32.70;13.13;;;;;;;17.01;55.27;101578.16;5084336;28;20514;-46
2022/09/23 10:38:10;;;;;;;23.35;13.05;;;;;;;17.08;55.50;101586.28;5086299;28;20196;-46
2022/09/23 10:46:39;;;;;;;26.02;13.85;;;;;;;17.27;55.19;101583.19;5115247;28;20129;-44
2022/09/23 10:49:59;;;;;;;24.17;11.93;;;;;;;17.38;55.00;101589.97;5110276;28;20103;-48
2022/09/23 10:53:04;;;;;;;27.35;12.02;;;;;;;17.37;54.95;101585.63;5073044;28;20538;-46
2022/09/23 10:55:53;;;;;;;28.20;13.90;;;;;;;17.38;55.17;101590.81;5107582;28;20545;-43
2022/09/23 10:59:19;;;;;;;27.25;14.18;;;;;;;17.41;55.10;101595.78;5106522;28;20046;-46
2022/09/23 11:02:03;;;;;;;23.95;11.57;;;;;;;17.47;54.99;101595.09;5096371;28;20046;-45
2022/09/23 11:05:03;;;;;;;23.88;12.85;;;;;;;17.63;54.68;101582.63;5108493;28;20061;-50
2022/09/23 11:07:45;;;;;;;20.20;12.50;;;;;;;17.83;54.58;101591.84;5092985;28;20042;-46
2022/09/23 11:10:49;;;;;;;30.42;13.57;;;;;;;18.00;54.30;101589.88;5107214;28;20038;-46
2022/09/23 11:13:43;;;;;;;21.88;12.02;;;;;;;18.12;54.01;101568.91;5106977;28;20042;-47
2022/09/23 11:16:32;;;;;;;18.52;11.90;;;;;;;18.33;53.84;101579.69;5103812;28;20046;-49
2022/09/23 11:19:34;;;;;;;17.63;10.40;;;;;;;18.45;53.66;101572.06;5105343;28;20070;-46
2022/09/23 11:22:26;;;;;;;21.02;12.02;;;;;;;18.56;53.55;101573.47;5109531;28;20050;-50
2022/09/23 11:25:26;;;;;;;36.77;11.80;;;;;;;18.57;53.60;101565.22;5110338;28;20068;-49
2022/09/23 11:28:35;;;;;;;20.50;11.57;;;;;;;18.57;53.73;101575.09;5107628;28;20054;-47
2022/09/23 11:31:24;;;;;;;23.40;12.70;;;;;;;18.45;53.97;101569.38;5108054;28;20073;-44
2022/09/23 11:34:21;;;;;;;23.70;11.95;;;;;;;18.40;54.18;101558.41;5095259;28;20109;-49
2022/09/23 11:36:59;;;;;;;30.60;13.82;;;;;;;18.44;53.99;101571.22;5109514;28;20450;-46
2022/09/23 11:39:37;;;;;;;20.63;11.85;;;;;;;18.42;54.05;101567.91;5112149;28;20525;-46
2022/09/23 11:42:17;;;;;;;23.60;15.30;;;;;;;18.40;54.19;101564.59;5098686;28;20058;-46
2022/09/23 11:44:58;;;;;;;32.50;16.05;;;;;;;18.34;54.12;101553.81;5100883;28;20336;-46
2022/09/23 11:47:36;;;;;;;16.40;11.35;;;;;;;18.40;54.02;101550.41;5112336;28;20038;-50
2022/09/23 11:50:19;;;;;;;23.42;11.25;;;;;;;18.49;54.11;101561.81;5111402;28;20050;-48
2022/09/23 11:52:57;;;;;;;21.90;11.63;;;;;;;18.48;54.01;101549.47;5108881;28;20058;-47
2022/09/23 11:55:36;;;;;;;18.83;12.10;;;;;;;18.49;53.94;101546.63;5112261;28;20065;-48
2022/09/23 11:58:13;;;;;;;20.75;10.55;;;;;;;18.50;53.98;101542.09;5112534;28;20042;-47
2022/09/23 12:00:53;;;;;;;18.83;12.50;;;;;;;18.50;53.96;101531.41;5111023;28;20042;-48
2022/09/23 12:03:34;;;;;;;20.35;11.90;;;;;;;18.62;53.97;101535.25;5106639;28;20202;-48
2022/09/23 12:06:11;;;;;;;22.60;12.55;;;;;;;18.71;53.67;101542.19;5111902;28;20793;-45
2022/09/23 12:08:44;;;;;;;29.63;12.05;;;;;;;18.74;53.60;101533.81;5111543;28;20555;-49
2022/09/23 12:11:28;;;;;;;23.92;11.38;;;;;;;18.83;53.46;101535.38;5111345;28;20042;-48
2022/09/23 12:14:14;;;;;;;15.38;10.95;;;;;;;18.99;53.44;101533.50;5097311;28;20422;-50
2022/09/23 12:17:15;;;;;;;19.52;11.52;;;;;;;19.16;52.97;101532.22;5106264;28;20173;-47